Time;durP1;ratioP1;P1;durP2;ratioP2;P2;SDS_P1;SDS_P2;PMS_P1;PMS_P2;Temp;Humidity;BMP_temperature;BMP_pressure;BME280_temperature;BME280_humidity;BME280_pressure;Samples;Min_cycle;Max_cycle;Signal;HPM_P1;HPM_P2
2023/03/03 00:02:58;;;;;;;7.05;4.25;;;;;;;;;;10446332;28;20321;-80
2023/03/03 00:07:58;;;;;;;6.38;4.05;;;;;;;;;;10426097;28;20060;-77
2023/03/03 00:13:02;;;;;;;6.55;4.20;;;;;;;;;;10429249;28;20040;-84
2023/03/03 00:18:10;;;;;;;7.15;4.55;;;;;;;;;;10427501;28;20172;-77
2023/03/03 00:23:20;;;;;;;8.80;4.93;;;;;;;;;;10398053;28;20075;-73
2023/03/03 00:28:31;;;;;;;7.68;5.18;;;;;;;;;;10430977;28;20021;-74
2023/03/03 00:33:33;;;;;;;7.38;5.55;;;;;;;;;;10410480;28;20450;-80
2023/03/03 00:38:34;;;;;;;11.43;5.78;;;;;;;;;;10429581;28;20471;-76
2023/03/03 00:43:35;;;;;;;10.80;5.55;;;;;;;;;;10428989;28;20032;-79
2023/03/03 00:48:35;;;;;;;8.10;5.63;;;;;;;;;;10433325;28;20028;-81
2023/03/03 00:53:36;;;;;;;10.02;5.70;;;;;;;;;;10427317;28;20031;-76
2023/03/03 00:58:39;;;;;;;10.25;5.75;;;;;;;;;;10408335;28;20483;-82
2023/03/03 01:03:43;;;;;;;8.07;5.10;;;;;;;;;;10441385;28;20052;-72
2023/03/03 01:08:44;;;;;;;9.73;5.55;;;;;;;;;;10441808;28;20032;-80
2023/03/03 01:13:46;;;;;;;9.80;5.78;;;;;;;;;;10415159;28;20025;-77
2023/03/03 01:18:47;;;;;;;10.15;5.53;;;;;;;;;;10444374;28;20028;-72
2023/03/03 01:23:48;;;;;;;10.07;5.47;;;;;;;;;;10426501;28;20392;-80
2023/03/03 01:28:50;;;;;;;12.30;6.20;;;;;;;;;;10424638;28;20046;-79
2023/03/03 01:33:50;;;;;;;8.00;5.15;;;;;;;;;;10444722;28;20052;-75
2023/03/03 01:38:51;;;;;;;10.93;4.70;;;;;;;;;;10443727;28;20136;-79
2023/03/03 01:43:51;;;;;;;10.25;4.78;;;;;;;;;;10407213;28;20032;-75
2023/03/03 01:48:54;;;;;;;10.75;5.72;;;;;;;;;;10425314;28;20041;-78
2023/03/03 01:54:02;;;;;;;9.23;4.95;;;;;;;;;;10426239;28;20029;-83
2023/03/03 01:59:06;;;;;;;10.43;4.82;;;;;;;;;;10411332;28;20061;-77
2023/03/03 02:04:07;;;;;;;8.43;4.38;;;;;;;;;;10416032;28;20402;-80
2023/03/03 02:09:26;;;;;;;7.10;4.10;;;;;;;;;;10425180;28;20031;-79
2023/03/03 02:14:26;;;;;;;7.47;4.90;;;;;;;;;;10443198;28;20087;-75
2023/03/03 02:19:33;;;;;;;11.00;6.20;;;;;;;;;;10440930;28;20540;-78
2023/03/03 02:24:52;;;;;;;10.32;6.03;;;;;;;;;;10423314;28;20474;-81
2023/03/03 02:29:52;;;;;;;12.45;5.97;;;;;;;;;;10417192;28;20033;-78
2023/03/03 02:34:52;;;;;;;14.13;7.93;;;;;;;;;;10422588;28;20037;-77
2023/03/03 02:39:53;;;;;;;11.13;6.70;;;;;;;;;;10422601;28;20395;-84
2023/03/03 02:44:53;;;;;;;13.63;6.90;;;;;;;;;;10407290;28;20708;-83
2023/03/03 02:49:53;;;;;;;12.13;7.25;;;;;;;;;;10431393;28;20036;-77
2023/03/03 02:54:53;;;;;;;16.27;8.02;;;;;;;;;;10431928;28;20549;-78
2023/03/03 02:59:54;;;;;;;16.05;8.35;;;;;;;;;;10430396;28;20452;-77
2023/03/03 03:04:54;;;;;;;12.75;7.32;;;;;;;;;;10457348;28;20025;-80
2023/03/03 03:09:55;;;;;;;15.43;8.02;;;;;;;;;;10429021;28;20051;-76
2023/03/03 03:14:55;;;;;;;13.93;8.43;;;;;;;;;;10429600;28;20438;-75
2023/03/03 03:19:55;;;;;;;13.07;7.03;;;;;;;;;;10441656;28;20055;-75
2023/03/03 03:24:56;;;;;;;13.77;8.77;;;;;;;;;;10438477;28;20033;-83
2023/03/03 03:29:56;;;;;;;14.85;7.80;;;;;;;;;;10437529;28;20021;-76
2023/03/03 03:34:56;;;;;;;13.82;7.38;;;;;;;;;;10413281;28;20114;-77
2023/03/03 03:39:57;;;;;;;15.30;8.25;;;;;;;;;;10438210;28;20071;-78
2023/03/03 03:44:57;;;;;;;15.88;8.27;;;;;;;;;;10427167;28;20029;-74
2023/03/03 03:49:57;;;;;;;14.27;8.32;;;;;;;;;;10445281;28;20033;-76
2023/03/03 03:54:58;;;;;;;17.40;8.30;;;;;;;;;;10428580;28;20075;-82
2023/03/03 03:59:58;;;;;;;15.75;8.25;;;;;;;;;;10430191;28;20029;-80
2023/03/03 04:04:58;;;;;;;18.23;10.10;;;;;;;;;;10412122;28;20025;-76
2023/03/03 04:10:01;;;;;;;21.92;10.73;;;;;;;;;;10422146;28;20841;-73
2023/03/03 04:15:02;;;;;;;22.85;10.57;;;;;;;;;;10443716;28;20033;-74
2023/03/03 04:20:03;;;;;;;18.47;9.77;;;;;;;;;;10426168;28;20029;-75
2023/03/03 04:25:04;;;;;;;26.83;12.82;;;;;;;;;;10391927;28;20021;-78
2023/03/03 04:30:05;;;;;;;22.73;11.05;;;;;;;;;;10426297;28;20539;-77
2023/03/03 04:35:06;;;;;;;23.05;11.10;;;;;;;;;;10443676;28;20049;-75
2023/03/03 04:40:07;;;;;;;24.25;10.80;;;;;;;;;;10414841;28;20411;-81
2023/03/03 04:45:08;;;;;;;24.63;12.70;;;;;;;;;;10421647;28;20379;-77
2023/03/03 04:50:09;;;;;;;23.48;12.43;;;;;;;;;;10424583;28;20024;-76
2023/03/03 04:55:10;;;;;;;23.30;12.00;;;;;;;;;;10420533;28;20036;-75
2023/03/03 05:00:12;;;;;;;27.98;13.75;;;;;;;;;;10417412;28;20032;-73
2023/03/03 05:05:16;;;;;;;25.48;11.98;;;;;;;;;;10424432;28;20029;-80
2023/03/03 05:10:16;;;;;;;25.58;11.70;;;;;;;;;;10447277;28;20094;-79
2023/03/03 05:15:17;;;;;;;27.05;12.57;;;;;;;;;;10415746;28;20079;-74
2023/03/03 05:20:17;;;;;;;24.52;11.60;;;;;;;;;;10434377;28;20406;-78
2023/03/03 05:25:19;;;;;;;24.17;12.15;;;;;;;;;;10426977;28;20021;-76
2023/03/03 05:30:19;;;;;;;30.75;13.98;;;;;;;;;;10410191;28;20040;-72
2023/03/03 05:35:19;;;;;;;26.03;13.80;;;;;;;;;;10421074;28;20059;-75
2023/03/03 05:40:20;;;;;;;29.65;13.57;;;;;;;;;;10410962;28;20060;-79
2023/03/03 05:45:23;;;;;;;26.40;15.27;;;;;;;;;;10422120;28;20520;-73
2023/03/03 05:50:24;;;;;;;28.55;14.07;;;;;;;;;;10426417;28;20112;-80
2023/03/03 05:55:24;;;;;;;33.15;17.08;;;;;;;;;;10421404;28;20020;-77
2023/03/03 06:00:24;;;;;;;28.90;13.80;;;;;;;;;;10440958;28;20090;-75
2023/03/03 06:05:25;;;;;;;27.73;13.93;;;;;;;;;;10436363;28;20286;-79
2023/03/03 06:10:25;;;;;;;33.50;15.20;;;;;;;;;;10426920;28;20108;-75
2023/03/03 06:15:26;;;;;;;25.98;13.68;;;;;;;;;;10422103;28;20023;-75
2023/03/03 06:20:27;;;;;;;29.23;13.95;;;;;;;;;;10421771;28;20031;-76
2023/03/03 06:25:27;;;;;;;29.13;14.40;;;;;;;;;;10415874;28;20035;-74
2023/03/03 06:30:29;;;;;;;26.73;13.87;;;;;;;;;;10420979;28;20480;-74
2023/03/03 06:35:29;;;;;;;30.58;15.63;;;;;;;;;;10401811;28;20053;-75
2023/03/03 06:40:30;;;;;;;26.15;13.07;;;;;;;;;;10395080;28;20039;-74
2023/03/03 06:45:30;;;;;;;28.48;13.10;;;;;;;;;;10419656;28;20025;-79
2023/03/03 06:50:30;;;;;;;22.30;10.73;;;;;;;;;;10418831;28;20130;-75
2023/03/03 06:55:34;;;;;;;24.30;12.82;;;;;;;;;;10428176;28;20029;-77
2023/03/03 07:00:36;;;;;;;19.67;10.20;;;;;;;;;;10433277;28;20057;-78
2023/03/03 07:05:36;;;;;;;19.13;11.30;;;;;;;;;;10457833;28;20406;-77
2023/03/03 07:10:37;;;;;;;18.57;9.03;;;;;;;;;;10462634;28;20036;-77
2023/03/03 07:15:38;;;;;;;18.30;7.93;;;;;;;;;;10441069;28;20052;-71
2023/03/03 07:20:38;;;;;;;18.30;10.30;;;;;;;;;;10449519;28;20021;-76
2023/03/03 07:25:38;;;;;;;14.80;9.02;;;;;;;;;;10451405;28;20059;-76
2023/03/03 07:30:39;;;;;;;21.85;10.13;;;;;;;;;;10442550;28;20025;-77
2023/03/03 07:35:43;;;;;;;21.92;9.95;;;;;;;;;;10405030;28;20041;-80
2023/03/03 07:40:48;;;;;;;20.88;9.85;;;;;;;;;;10425146;28;20036;-76
2023/03/03 07:45:50;;;;;;;14.15;8.18;;;;;;;;;;10411332;28;20021;-84
2023/03/03 07:50:50;;;;;;;17.08;8.95;;;;;;;;;;10420791;28;20021;-74
2023/03/03 07:55:50;;;;;;;18.48;9.23;;;;;;;;;;10421198;28;20017;-77
2023/03/03 08:01:09;;;;;;;16.88;8.90;;;;;;;;;;10431365;28;20079;-78
2023/03/03 08:06:39;;;;;;;18.05;9.73;;;;;;;;;;10422873;28;20428;-76
2023/03/03 08:11:48;;;;;;;14.00;8.68;;;;;;;;;;10408891;28;20028;-76
2023/03/03 08:16:48;;;;;;;15.27;8.82;;;;;;;;;;10441363;28;20074;-75
2023/03/03 08:21:48;;;;;;;17.92;8.65;;;;;;;;;;10424328;28;20021;-83
2023/03/03 08:26:54;;;;;;;22.93;11.27;;;;;;;;;;10430898;28;20146;-79
2023/03/03 08:32:09;;;;;;;23.85;12.02;;;;;;;;;;10430923;28;20511;-80
2023/03/03 08:37:16;;;;;;;29.75;12.50;;;;;;;;;;10445250;28;20128;-81
2023/03/03 08:42:25;;;;;;;26.40;10.63;;;;;;;;;;10444017;28;20073;-81
2023/03/03 08:47:29;;;;;;;22.27;11.10;;;;;;;;;;10424705;28;20135;-79
2023/03/03 08:52:30;;;;;;;23.15;11.73;;;;;;;;;;10440903;28;20020;-74
2023/03/03 08:57:30;;;;;;;20.77;10.27;;;;;;;;;;10432093;28;20487;-78
2023/03/03 09:02:31;;;;;;;23.70;12.50;;;;;;;;;;10442725;28;20029;-79
2023/03/03 09:07:31;;;;;;;23.63;10.88;;;;;;;;;;10429115;28;20032;-76
2023/03/03 09:13:00;;;;;;;21.98;11.98;;;;;;;;;;10444963;28;20024;-76
2023/03/03 09:18:12;;;;;;;19.47;10.33;;;;;;;;;;10413026;28;20052;-78
2023/03/03 09:23:32;;;;;;;16.83;9.40;;;;;;;;;;10454790;28;20024;-77
2023/03/03 09:28:32;;;;;;;17.08;9.48;;;;;;;;;;10433975;28;20564;-83
2023/03/03 09:33:42;;;;;;;12.10;7.32;;;;;;;;;;10455052;28;20037;-74
2023/03/03 09:38:43;;;;;;;;;;;;;;;;;;10406053;28;20053;-73
2023/03/03 09:44:05;;;;;;;12.40;7.55;;;;;;;;;;10458016;28;20004;-82
2023/03/03 09:49:09;;;;;;;18.00;7.50;;;;;;;;;;10430646;28;20037;-81
2023/03/03 09:54:29;;;;;;;17.00;8.55;;;;;;;;;;10428337;28;20025;-81
2023/03/03 09:59:44;;;;;;;16.15;9.45;;;;;;;;;;10435493;28;20029;-85
2023/03/03 10:05:07;;;;;;;18.02;8.35;;;;;;;;;;10455483;28;20100;-82
2023/03/03 10:10:37;;;;;;;16.15;9.48;;;;;;;;;;10437358;28;20083;-78
2023/03/03 10:15:54;;;;;;;14.55;8.73;;;;;;;;;;10435210;28;20457;-78
2023/03/03 10:21:24;;;;;;;18.00;9.43;;;;;;;;;;10440093;28;20067;-82
2023/03/03 10:26:25;;;;;;;19.30;9.88;;;;;;;;;;10437684;28;20052;-80
2023/03/03 10:31:33;;;;;;;23.17;12.23;;;;;;;;;;10449678;28;20044;-79
2023/03/03 10:36:52;;;;;;;19.85;10.25;;;;;;;;;;10449360;28;20049;-81
2023/03/03 10:42:06;;;;;;;20.92;11.40;;;;;;;;;;10437562;28;20037;-78
2023/03/03 10:47:17;;;;;;;16.27;9.32;;;;;;;;;;10433194;28;20036;-80
2023/03/03 10:52:27;;;;;;;24.67;12.48;;;;;;;;;;10454184;28;20514;-77
2023/03/03 10:57:37;;;;;;;15.80;9.70;;;;;;;;;;10424212;28;20023;-76
2023/03/03 11:02:37;;;;;;;18.30;10.23;;;;;;;;;;10445669;28;20029;-82
2023/03/03 11:07:46;;;;;;;20.30;10.98;;;;;;;;;;10430538;28;20021;-76
2023/03/03 11:12:57;;;;;;;20.80;12.07;;;;;;;;;;10415699;28;20025;-80
2023/03/03 11:18:32;;;;;;;21.67;11.63;;;;;;;;;;10449834;28;20028;-82
2023/03/03 11:23:35;;;;;;;28.92;15.55;;;;;;;;;;10450456;28;20029;-79
2023/03/03 11:28:47;;;;;;;16.85;11.52;;;;;;;;;;10442143;28;20078;-80
2023/03/03 11:33:51;;;;;;;21.02;13.68;;;;;;;;;;10451707;28;20036;-76
2023/03/03 11:39:03;;;;;;;22.13;12.98;;;;;;;;;;10438251;28;20064;-76
2023/03/03 11:44:22;;;;;;;20.80;13.30;;;;;;;;;;10423625;28;20033;-78
2023/03/03 11:49:32;;;;;;;28.13;15.07;;;;;;;;;;10423935;28;20737;-76
2023/03/03 11:54:35;;;;;;;29.67;16.05;;;;;;;;;;10431965;28;20086;-75
2023/03/03 11:59:47;;;;;;;31.75;17.20;;;;;;;;;;10447573;28;20033;-82
2023/03/03 12:05:01;;;;;;;32.33;15.15;;;;;;;;;;10432547;28;20145;-84
2023/03/03 12:10:41;;;;;;;28.55;16.13;;;;;;;;;;10427142;28;20725;-80
2023/03/03 12:16:05;;;;;;;31.05;16.67;;;;;;;;;;10452154;28;20037;-84
2023/03/03 12:21:12;;;;;;;32.60;17.50;;;;;;;;;;10433942;28;20029;-80
2023/03/03 12:26:25;;;;;;;31.85;17.77;;;;;;;;;;10424817;28;20026;-79
2023/03/03 12:31:34;;;;;;;34.95;18.75;;;;;;;;;;10431491;28;20039;-82
2023/03/03 12:36:53;;;;;;;30.80;18.65;;;;;;;;;;10421631;28;20462;-75
2023/03/03 12:42:06;;;;;;;46.17;21.77;;;;;;;;;;10436029;28;20498;-76
2023/03/03 12:47:29;;;;;;;33.78;19.73;;;;;;;;;;10395874;28;20030;-77
2023/03/03 12:52:48;;;;;;;39.83;22.65;;;;;;;;;;10432988;28;20025;-81
2023/03/03 12:57:51;;;;;;;45.63;22.70;;;;;;;;;;10434189;28;20021;-78
2023/03/03 13:02:51;;;;;;;37.72;19.77;;;;;;;;;;10409443;28;20020;-74
2023/03/03 13:08:10;;;;;;;33.53;19.00;;;;;;;;;;10417039;28;20470;-77
2023/03/03 13:13:30;;;;;;;32.25;18.48;;;;;;;;;;10414877;28;20599;-77
2023/03/03 13:18:37;;;;;;;29.90;16.77;;;;;;;;;;10432668;28;20024;-81
2023/03/03 13:23:41;;;;;;;34.58;16.98;;;;;;;;;;10449595;28;20033;-76
2023/03/03 13:28:51;;;;;;;22.60;14.00;;;;;;;;;;10437705;28;20028;-79
2023/03/03 13:33:53;;;;;;;26.05;15.80;;;;;;;;;;10434995;28;20013;-78
2023/03/03 13:39:01;;;;;;;24.73;14.45;;;;;;;;;;10447076;28;20491;-73
2023/03/03 13:44:13;;;;;;;20.50;11.23;;;;;;;;;;10419810;28;20025;-73
2023/03/03 13:49:24;;;;;;;20.75;12.43;;;;;;;;;;10423774;28;20048;-73
2023/03/03 13:54:40;;;;;;;19.45;10.43;;;;;;;;;;10391235;28;20697;-74
2023/03/03 13:59:50;;;;;;;19.88;11.10;;;;;;;;;;10439266;28;20017;-74
2023/03/03 14:04:58;;;;;;;18.52;10.85;;;;;;;;;;10449763;28;20074;-76
2023/03/03 14:10:13;;;;;;;18.88;10.65;;;;;;;;;;10434254;28;20465;-78
2023/03/03 14:15:24;;;;;;;19.60;11.52;;;;;;;;;;10433575;28;20025;-78
2023/03/03 14:20:34;;;;;;;18.77;12.13;;;;;;;;;;10433022;28;20495;-80
2023/03/03 14:25:51;;;;;;;19.65;12.80;;;;;;;;;;10439411;28;20435;-79
2023/03/03 14:30:53;;;;;;;22.08;13.30;;;;;;;;;;10399701;28;20025;-77
2023/03/03 14:35:56;;;;;;;20.90;13.82;;;;;;;;;;10390295;28;20073;-81
2023/03/03 14:41:14;;;;;;;22.05;13.40;;;;;;;;;;10427274;28;20029;-72
2023/03/03 14:46:35;;;;;;;23.88;14.52;;;;;;;;;;10403591;28;20113;-74
2023/03/03 14:51:44;;;;;;;25.60;15.98;;;;;;;;;;10421606;28;20124;-78
2023/03/03 14:56:55;;;;;;;23.75;14.15;;;;;;;;;;10423548;28;20070;-75
2023/03/03 15:01:58;;;;;;;23.33;14.15;;;;;;;;;;10445733;28;20033;-76
2023/03/03 15:07:13;;;;;;;24.45;16.35;;;;;;;;;;10437790;28;20029;-75
2023/03/03 15:12:18;;;;;;;23.98;14.65;;;;;;;;;;10418353;28;20042;-74
2023/03/03 15:17:24;;;;;;;28.67;16.42;;;;;;;;;;10426977;28;20025;-75
2023/03/03 15:22:37;;;;;;;28.92;15.82;;;;;;;;;;10433686;28;20093;-74
2023/03/03 15:27:40;;;;;;;27.70;16.92;;;;;;;;;;10420272;28;20096;-74
2023/03/03 15:32:41;;;;;;;30.10;16.77;;;;;;;;;;10404874;22;20053;-74
2023/03/03 15:37:53;;;;;;;28.45;16.75;;;;;;;;;;10387154;28;20411;-76
2023/03/03 15:43:02;;;;;;;30.20;16.40;;;;;;;;;;10394374;28;20057;-80
2023/03/03 15:48:21;;;;;;;28.83;17.80;;;;;;;;;;10381096;28;20041;-75
2023/03/03 15:53:32;;;;;;;33.70;19.15;;;;;;;;;;10398342;28;20029;-74
2023/03/03 15:58:50;;;;;;;32.05;17.05;;;;;;;;;;10409140;28;20396;-72
2023/03/03 16:04:09;;;;;;;35.08;19.40;;;;;;;;;;10394149;28;20160;-77
2023/03/03 16:09:10;;;;;;;29.83;17.67;;;;;;;;;;10367349;28;20496;-78
2023/03/03 16:14:29;;;;;;;36.03;20.33;;;;;;;;;;10400477;28;20040;-76
2023/03/03 16:19:52;;;;;;;36.20;19.13;;;;;;;;;;10384674;28;20057;-76
2023/03/03 16:25:11;;;;;;;33.33;19.27;;;;;;;;;;10357742;28;20048;-77
2023/03/03 16:30:12;;;;;;;38.03;21.58;;;;;;;;;;10344840;28;20078;-73
2023/03/03 16:35:23;;;;;;;40.63;22.03;;;;;;;;;;10384844;28;20508;-79
2023/03/03 16:40:44;;;;;;;41.10;20.98;;;;;;;;;;10355321;28;20057;-73
2023/03/03 16:45:46;;;;;;;37.85;21.00;;;;;;;;;;10356044;28;20420;-78
2023/03/03 16:51:05;;;;;;;37.75;20.65;;;;;;;;;;10378236;28;20021;-75
2023/03/03 16:56:08;;;;;;;40.75;20.15;;;;;;;;;;10366296;28;20022;-80
2023/03/03 17:01:40;;;;;;;37.85;19.70;;;;;;;;;;10363644;28;20120;-75
2023/03/03 17:06:43;;;;;;;35.35;20.25;;;;;;;;;;10370302;28;20414;-75
2023/03/03 17:11:49;;;;;;;33.85;17.95;;;;;;;;;;10534280;23;20536;-73
2023/03/03 17:17:00;;;;;;;32.85;16.10;;;;;;;;;;10523053;28;20063;-79
2023/03/03 17:22:06;;;;;;;33.20;17.60;;;;;;;;;;10519712;28;20034;-77
2023/03/03 17:27:13;;;;;;;38.20;19.85;;;;;;;;;;10521189;28;20424;-75
2023/03/03 17:32:20;;;;;;;24.48;14.27;;;;;;;;;;10516339;28;20028;-83
2023/03/03 17:37:24;;;;;;;24.80;12.00;;;;;;;;;;10497386;28;20030;-75
2023/03/03 17:42:33;;;;;;;26.77;15.38;;;;;;;;;;10512974;28;20027;-74
2023/03/03 17:47:42;;;;;;;31.92;17.20;;;;;;;;;;10498939;28;20407;-77
2023/03/03 17:53:04;;;;;;;26.40;16.42;;;;;;;;;;10521133;28;20031;-73
2023/03/03 17:58:13;;;;;;;31.50;17.13;;;;;;;;;;10504820;28;20035;-81
2023/03/03 18:03:18;;;;;;;26.35;14.07;;;;;;;;;;10525624;28;20244;-78
2023/03/03 18:08:38;;;;;;;26.27;15.20;;;;;;;;;;10514777;28;20106;-76
2023/03/03 18:13:58;;;;;;;30.27;16.98;;;;;;;;;;10499026;28;20426;-74
2023/03/03 18:19:05;;;;;;;29.48;15.82;;;;;;;;;;10534988;28;20035;-76
2023/03/03 18:24:23;;;;;;;31.63;18.55;;;;;;;;;;10537389;28;20074;-79
2023/03/03 18:29:28;;;;;;;43.78;21.27;;;;;;;;;;10537368;28;20560;-69
2023/03/03 18:34:33;;;;;;;45.85;22.98;;;;;;;;;;10512738;28;20055;-76
2023/03/03 18:40:09;;;;;;;31.52;16.60;;;;;;;;;;10512518;28;20036;-80
2023/03/03 18:45:39;;;;;;;28.77;15.63;;;;;;;;;;10524764;28;20028;-73
2023/03/03 18:50:44;;;;;;;25.95;14.50;;;;;;;;;;10502770;28;20028;-79
2023/03/03 18:55:52;;;;;;;28.65;15.43;;;;;;;;;;10504461;28;20024;-79
2023/03/03 19:01:12;;;;;;;22.63;13.43;;;;;;;;;;10503744;28;20036;-73
2023/03/03 19:06:30;;;;;;;28.48;14.05;;;;;;;;;;10496054;28;20032;-78
2023/03/03 19:11:49;;;;;;;19.83;11.13;;;;;;;;;;10496918;28;20061;-77
2023/03/03 19:16:56;;;;;;;23.17;12.65;;;;;;;;;;10494624;28;20516;-75
2023/03/03 19:22:15;;;;;;;21.20;11.88;;;;;;;;;;10498081;28;20024;-74
2023/03/03 19:27:25;;;;;;;25.65;11.55;;;;;;;;;;10489409;28;20032;-72
2023/03/03 19:32:28;;;;;;;19.77;11.32;;;;;;;;;;10491481;28;20035;-80
2023/03/03 19:37:35;;;;;;;16.80;9.88;;;;;;;;;;10502672;28;20874;-74
2023/03/03 19:42:46;;;;;;;17.10;10.20;;;;;;;;;;10494022;28;20032;-80
2023/03/03 19:47:50;;;;;;;19.98;10.63;;;;;;;;;;10508531;28;20035;-69
2023/03/03 19:53:09;;;;;;;16.23;9.73;;;;;;;;;;10490933;28;20035;-73
2023/03/03 19:58:32;;;;;;;18.67;10.13;;;;;;;;;;10494568;28;20063;-71
2023/03/03 20:03:48;;;;;;;17.95;10.43;;;;;;;;;;10452154;28;20039;-73
2023/03/03 20:09:02;;;;;;;19.83;11.60;;;;;;;;;;10515380;28;20473;-77
2023/03/03 20:14:17;;;;;;;25.17;12.75;;;;;;;;;;10499036;28;20040;-74
2023/03/03 20:19:37;;;;;;;22.38;13.35;;;;;;;;;;10486486;28;20024;-77
2023/03/03 20:24:42;;;;;;;22.98;13.75;;;;;;;;;;10503145;28;20494;-74
2023/03/03 20:29:53;;;;;;;27.63;15.75;;;;;;;;;;10491225;28;20541;-72
2023/03/03 20:35:12;;;;;;;31.75;18.52;;;;;;;;;;10489954;28;20025;-71
2023/03/03 20:40:12;;;;;;;31.75;17.88;;;;;;;;;;10510171;28;20096;-77
2023/03/03 20:45:13;;;;;;;30.80;17.38;;;;;;;;;;10502036;28;20025;-74
2023/03/03 20:50:19;;;;;;;27.60;14.65;;;;;;;;;;10484357;28;20031;-79
2023/03/03 20:55:33;;;;;;;29.67;16.83;;;;;;;;;;10496926;28;20020;-74
2023/03/03 21:00:42;;;;;;;29.02;16.02;;;;;;;;;;10488724;28;20028;-76
2023/03/03 21:06:02;;;;;;;28.35;14.07;;;;;;;;;;10481060;28;20028;-72
2023/03/03 21:11:03;;;;;;;20.55;12.00;;;;;;;;;;10487907;28;20040;-78
2023/03/03 21:16:19;;;;;;;15.63;9.18;;;;;;;;;;10515371;28;20042;-77
2023/03/03 21:21:20;;;;;;;15.43;7.95;;;;;;;;;;10488017;28;20046;-78
2023/03/03 21:26:40;;;;;;;13.75;8.45;;;;;;;;;;10487112;28;20640;-74
2023/03/03 21:31:48;;;;;;;17.40;9.80;;;;;;;;;;10509097;28;20570;-78
2023/03/03 21:36:49;;;;;;;18.58;8.90;;;;;;;;;;10492834;28;20020;-77
2023/03/03 21:41:54;;;;;;;16.67;9.50;;;;;;;;;;10474639;28;20062;-79
2023/03/03 21:46:56;;;;;;;15.43;9.40;;;;;;;;;;10479228;28;20032;-79
2023/03/03 21:51:57;;;;;;;17.10;8.82;;;;;;;;;;10504582;28;20056;-77
2023/03/03 21:56:59;;;;;;;15.02;9.02;;;;;;;;;;10497178;28;20112;-75
2023/03/03 22:02:00;;;;;;;18.35;9.55;;;;;;;;;;10518609;28;20020;-75
2023/03/03 22:07:01;;;;;;;15.90;8.30;;;;;;;;;;10499634;28;20024;-75
2023/03/03 22:12:02;;;;;;;21.75;9.85;;;;;;;;;;10511930;28;20119;-74
2023/03/03 22:17:02;;;;;;;18.20;9.90;;;;;;;;;;10505611;28;20024;-74
2023/03/03 22:22:03;;;;;;;19.48;10.07;;;;;;;;;;10518387;28;20093;-75
2023/03/03 22:27:03;;;;;;;16.02;9.00;;;;;;;;;;10491121;28;20020;-76
2023/03/03 22:32:05;;;;;;;15.57;9.07;;;;;;;;;;10509535;28;20024;-78
2023/03/03 22:37:05;;;;;;;15.88;8.80;;;;;;;;;;10509722;28;20023;-74
2023/03/03 22:42:06;;;;;;;18.05;9.05;;;;;;;;;;10528564;28;20024;-73
2023/03/03 22:47:06;;;;;;;17.23;9.50;;;;;;;;;;10494422;28;20024;-76
2023/03/03 22:52:06;;;;;;;19.52;10.45;;;;;;;;;;10494500;28;20020;-73
2023/03/03 22:57:07;;;;;;;19.97;10.50;;;;;;;;;;10506362;28;20024;-70
2023/03/03 23:02:12;;;;;;;23.13;11.80;;;;;;;;;;10424358;22;20524;-78
2023/03/03 23:07:17;;;;;;;21.67;11.90;;;;;;;;;;10327402;28;20022;-78
2023/03/03 23:12:21;;;;;;;24.00;12.43;;;;;;;;;;10346064;28;20037;-79
2023/03/03 23:17:21;;;;;;;28.83;13.63;;;;;;;;;;10332038;28;20507;-79
2023/03/03 23:22:21;;;;;;;28.13;14.80;;;;;;;;;;10330553;28;20496;-73
2023/03/03 23:27:23;;;;;;;24.88;14.32;;;;;;;;;;10354122;28;20076;-78
2023/03/03 23:32:26;;;;;;;28.50;13.85;;;;;;;;;;10362174;28;20496;-77
2023/03/03 23:37:29;;;;;;;27.05;13.88;;;;;;;;;;10339801;28;20030;-80
2023/03/03 23:42:29;;;;;;;25.50;13.65;;;;;;;;;;10342769;28;20045;-76
2023/03/03 23:47:31;;;;;;;25.58;13.70;;;;;;;;;;10340763;28;20123;-78
2023/03/03 23:52:32;;;;;;;29.52;14.45;;;;;;;;;;10340221;28;20629;-77
2023/03/03 23:57:33;;;;;;;29.80;15.47;;;;;;;;;;10353633;28;20026;-82
